Weather at Detroit Metropolitan Wayne County Airport

Public forecast

Using degrees Fahrenheit for public forecast. Weather courtesy of forecast.io.

Current aviation weather report (METAR) for Detroit Metropolitan Wayne County Airport

Retrieved 2021/06/23 11:53 UTC (11 minutes ago):

KDTW 231153Z 00000KT 10SM SCT065 BKN090 OVC200 14/09 A3013 RMK AO2 SLP201 T01440089 10144 20106 51017

Aviation forecast (TAF) for Detroit Metropolitan Wayne County Airport

Retrieved 2021/06/23 12:24 UTC (0 seconds ago):

TAF KDTW 231123Z 2312/2418 20005KT P6SM BKN070 FM231600 22013KT P6SM OVC070 FM240100 20005KT P6SM BKN100 OVC250 FM241300 18010KT P6SM SCT100 BKN250